sensor_id;sensor_type;location;lat;lon;timestamp;P1;durP1;ratioP1;P2;durP2;ratioP2
61741;SDS011;47650;49.848;9.620;2024-02-28T00:00:05;41.38;;;25.95;;
61741;SDS011;47650;49.848;9.620;2024-02-28T00:02:31;39.42;;;25.02;;
61741;SDS011;47650;49.848;9.620;2024-02-28T00:04:56;47.92;;;27.98;;
61741;SDS011;47650;49.848;9.620;2024-02-28T00:07:24;50.10;;;30.33;;
61741;SDS011;47650;49.848;9.620;2024-02-28T00:09:49;46.17;;;29.13;;
61741;SDS011;47650;49.848;9.620;2024-02-28T00:12:16;41.05;;;25.77;;
61741;SDS011;47650;49.848;9.620;2024-02-28T00:14:50;46.67;;;28.30;;
61741;SDS011;47650;49.848;9.620;2024-02-28T00:17:15;47.47;;;28.20;;
61741;SDS011;47650;49.848;9.620;2024-02-28T00:19:41;46.17;;;27.73;;
61741;SDS011;47650;49.848;9.620;2024-02-28T00:22:07;40.53;;;25.65;;
61741;SDS011;47650;49.848;9.620;2024-02-28T00:24:35;35.47;;;24.95;;
61741;SDS011;47650;49.848;9.620;2024-02-28T00:27:01;40.55;;;25.52;;
61741;SDS011;47650;49.848;9.620;2024-02-28T00:29:28;43.22;;;26.70;;
61741;SDS011;47650;49.848;9.620;2024-02-28T00:31:56;49.33;;;28.85;;
61741;SDS011;47650;49.848;9.620;2024-02-28T00:34:24;41.45;;;26.83;;
61741;SDS011;47650;49.848;9.620;2024-02-28T00:36:50;42.05;;;27.48;;
61741;SDS011;47650;49.848;9.620;2024-02-28T00:39:16;44.70;;;27.30;;
61741;SDS011;47650;49.848;9.620;2024-02-28T00:41:41;42.22;;;26.75;;
61741;SDS011;47650;49.848;9.620;2024-02-28T00:44:06;43.42;;;28.17;;
61741;SDS011;47650;49.848;9.620;2024-02-28T00:46:31;54.63;;;32.65;;
61741;SDS011;47650;49.848;9.620;2024-02-28T00:48:57;51.97;;;29.60;;
61741;SDS011;47650;49.848;9.620;2024-02-28T00:51:24;52.03;;;29.83;;
61741;SDS011;47650;49.848;9.620;2024-02-28T00:53:50;53.03;;;30.92;;
61741;SDS011;47650;49.848;9.620;2024-02-28T00:56:16;59.22;;;32.50;;
61741;SDS011;47650;49.848;9.620;2024-02-28T00:58:43;57.28;;;31.35;;
61741;SDS011;47650;49.848;9.620;2024-02-28T01:01:10;58.03;;;30.10;;
61741;SDS011;47650;49.848;9.620;2024-02-28T01:03:38;56.15;;;31.25;;
61741;SDS011;47650;49.848;9.620;2024-02-28T01:06:04;46.00;;;28.20;;
61741;SDS011;47650;49.848;9.620;2024-02-28T01:08:29;51.97;;;29.20;;
61741;SDS011;47650;49.848;9.620;2024-02-28T01:10:57;54.95;;;28.77;;
61741;SDS011;47650;49.848;9.620;2024-02-28T01:13:23;51.13;;;28.52;;
61741;SDS011;47650;49.848;9.620;2024-02-28T01:15:49;54.05;;;30.02;;
61741;SDS011;47650;49.848;9.620;2024-02-28T01:18:15;57.05;;;30.55;;
61741;SDS011;47650;49.848;9.620;2024-02-28T01:20:41;50.75;;;28.48;;
61741;SDS011;47650;49.848;9.620;2024-02-28T01:23:07;64.82;;;31.92;;
61741;SDS011;47650;49.848;9.620;2024-02-28T01:25:37;49.92;;;27.73;;
61741;SDS011;47650;49.848;9.620;2024-02-28T01:28:03;44.47;;;26.08;;
61741;SDS011;47650;49.848;9.620;2024-02-28T01:30:29;50.25;;;28.45;;
61741;SDS011;47650;49.848;9.620;2024-02-28T01:32:56;47.08;;;27.85;;
61741;SDS011;47650;49.848;9.620;2024-02-28T01:35:22;43.72;;;26.00;;
61741;SDS011;47650;49.848;9.620;2024-02-28T01:37:48;58.00;;;29.70;;
61741;SDS011;47650;49.848;9.620;2024-02-28T01:40:13;44.53;;;26.20;;
61741;SDS011;47650;49.848;9.620;2024-02-28T01:42:39;48.60;;;27.40;;
61741;SDS011;47650;49.848;9.620;2024-02-28T01:45:04;55.35;;;29.17;;
61741;SDS011;47650;49.848;9.620;2024-02-28T01:47:30;44.28;;;26.95;;
61741;SDS011;47650;49.848;9.620;2024-02-28T01:49:57;43.42;;;26.58;;
61741;SDS011;47650;49.848;9.620;2024-02-28T01:52:22;44.22;;;25.77;;
61741;SDS011;47650;49.848;9.620;2024-02-28T01:54:49;50.30;;;27.45;;
61741;SDS011;47650;49.848;9.620;2024-02-28T01:57:16;46.13;;;27.30;;
61741;SDS011;47650;49.848;9.620;2024-02-28T01:59:41;43.72;;;25.95;;
61741;SDS011;47650;49.848;9.620;2024-02-28T02:02:08;44.35;;;25.77;;
61741;SDS011;47650;49.848;9.620;2024-02-28T02:04:35;39.08;;;25.02;;
61741;SDS011;47650;49.848;9.620;2024-02-28T02:07:00;31.58;;;21.42;;
61741;SDS011;47650;49.848;9.620;2024-02-28T02:09:25;42.10;;;26.67;;
61741;SDS011;47650;49.848;9.620;2024-02-28T02:11:51;34.40;;;23.60;;
61741;SDS011;47650;49.848;9.620;2024-02-28T02:14:18;35.25;;;22.85;;
61741;SDS011;47650;49.848;9.620;2024-02-28T02:16:44;36.58;;;23.63;;
61741;SDS011;47650;49.848;9.620;2024-02-28T02:19:10;32.80;;;22.20;;
61741;SDS011;47650;49.848;9.620;2024-02-28T02:21:43;31.02;;;20.90;;
61741;SDS011;47650;49.848;9.620;2024-02-28T02:24:15;27.38;;;19.45;;
61741;SDS011;47650;49.848;9.620;2024-02-28T02:26:41;29.63;;;20.38;;
61741;SDS011;47650;49.848;9.620;2024-02-28T02:29:09;27.05;;;19.55;;
61741;SDS011;47650;49.848;9.620;2024-02-28T02:31:35;28.55;;;18.48;;
61741;SDS011;47650;49.848;9.620;2024-02-28T02:34:00;21.38;;;17.17;;
61741;SDS011;47650;49.848;9.620;2024-02-28T02:36:27;22.80;;;16.58;;
61741;SDS011;47650;49.848;9.620;2024-02-28T02:38:52;26.98;;;18.83;;
61741;SDS011;47650;49.848;9.620;2024-02-28T02:41:18;27.15;;;18.77;;
61741;SDS011;47650;49.848;9.620;2024-02-28T02:43:43;24.85;;;19.08;;
61741;SDS011;47650;49.848;9.620;2024-02-28T02:46:08;27.38;;;19.98;;
61741;SDS011;47650;49.848;9.620;2024-02-28T02:48:34;27.92;;;20.45;;
61741;SDS011;47650;49.848;9.620;2024-02-28T02:50:59;26.13;;;18.65;;
61741;SDS011;47650;49.848;9.620;2024-02-28T02:53:24;27.25;;;19.40;;
61741;SDS011;47650;49.848;9.620;2024-02-28T02:55:51;27.33;;;18.80;;
61741;SDS011;47650;49.848;9.620;2024-02-28T02:58:16;24.13;;;18.60;;
61741;SDS011;47650;49.848;9.620;2024-02-28T03:00:42;29.45;;;21.20;;
61741;SDS011;47650;49.848;9.620;2024-02-28T03:03:07;28.55;;;19.85;;
61741;SDS011;47650;49.848;9.620;2024-02-28T03:05:34;28.63;;;21.15;;
61741;SDS011;47650;49.848;9.620;2024-02-28T03:07:59;28.65;;;20.52;;
61741;SDS011;47650;49.848;9.620;2024-02-28T03:10:27;24.52;;;18.17;;
61741;SDS011;47650;49.848;9.620;2024-02-28T03:12:54;22.92;;;17.58;;
61741;SDS011;47650;49.848;9.620;2024-02-28T03:15:20;28.67;;;20.52;;
61741;SDS011;47650;49.848;9.620;2024-02-28T03:17:46;24.85;;;18.80;;
61741;SDS011;47650;49.848;9.620;2024-02-28T03:20:14;24.30;;;19.15;;
61741;SDS011;47650;49.848;9.620;2024-02-28T03:22:40;29.95;;;19.83;;
61741;SDS011;47650;49.848;9.620;2024-02-28T03:25:06;28.58;;;21.15;;
61741;SDS011;47650;49.848;9.620;2024-02-28T03:27:32;25.55;;;20.30;;
61741;SDS011;47650;49.848;9.620;2024-02-28T03:29:58;29.65;;;21.77;;
61741;SDS011;47650;49.848;9.620;2024-02-28T03:32:29;29.40;;;21.08;;
61741;SDS011;47650;49.848;9.620;2024-02-28T03:34:58;34.83;;;21.88;;
61741;SDS011;47650;49.848;9.620;2024-02-28T03:37:23;29.80;;;21.23;;
61741;SDS011;47650;49.848;9.620;2024-02-28T03:39:49;28.65;;;20.15;;
61741;SDS011;47650;49.848;9.620;2024-02-28T03:42:16;26.98;;;19.50;;
61741;SDS011;47650;49.848;9.620;2024-02-28T03:44:41;29.02;;;20.80;;
61741;SDS011;47650;49.848;9.620;2024-02-28T03:47:07;23.17;;;19.05;;
61741;SDS011;47650;49.848;9.620;2024-02-28T03:49:32;25.25;;;19.50;;
61741;SDS011;47650;49.848;9.620;2024-02-28T03:51:57;22.45;;;17.70;;
61741;SDS011;47650;49.848;9.620;2024-02-28T03:54:22;25.42;;;18.08;;
61741;SDS011;47650;49.848;9.620;2024-02-28T03:56:48;24.83;;;20.27;;
61741;SDS011;47650;49.848;9.620;2024-02-28T03:59:13;26.65;;;19.88;;
61741;SDS011;47650;49.848;9.620;2024-02-28T04:01:38;28.90;;;21.55;;
61741;SDS011;47650;49.848;9.620;2024-02-28T04:04:04;25.60;;;19.33;;
61741;SDS011;47650;49.848;9.620;2024-02-28T04:06:29;27.45;;;20.88;;
61741;SDS011;47650;49.848;9.620;2024-02-28T04:11:22;27.65;;;21.45;;
61741;SDS011;47650;49.848;9.620;2024-02-28T04:13:48;29.67;;;19.67;;
61741;SDS011;47650;49.848;9.620;2024-02-28T04:16:14;28.83;;;21.15;;
61741;SDS011;47650;49.848;9.620;2024-02-28T04:18:40;25.92;;;19.75;;
61741;SDS011;47650;49.848;9.620;2024-02-28T04:21:12;26.42;;;18.17;;
61741;SDS011;47650;49.848;9.620;2024-02-28T04:23:38;21.98;;;17.58;;
61741;SDS011;47650;49.848;9.620;2024-02-28T04:26:03;25.20;;;17.98;;
61741;SDS011;47650;49.848;9.620;2024-02-28T04:28:29;22.55;;;17.80;;
61741;SDS011;47650;49.848;9.620;2024-02-28T04:30:55;23.38;;;16.42;;
61741;SDS011;47650;49.848;9.620;2024-02-28T04:33:20;25.35;;;18.25;;
61741;SDS011;47650;49.848;9.620;2024-02-28T04:35:45;22.33;;;17.45;;
61741;SDS011;47650;49.848;9.620;2024-02-28T04:38:13;23.88;;;18.15;;
61741;SDS011;47650;49.848;9.620;2024-02-28T04:40:39;23.77;;;19.58;;
61741;SDS011;47650;49.848;9.620;2024-02-28T04:43:05;22.30;;;17.98;;
61741;SDS011;47650;49.848;9.620;2024-02-28T04:45:30;27.38;;;20.25;;
61741;SDS011;47650;49.848;9.620;2024-02-28T04:47:56;24.98;;;17.85;;
61741;SDS011;47650;49.848;9.620;2024-02-28T04:50:22;25.40;;;18.30;;
61741;SDS011;47650;49.848;9.620;2024-02-28T04:52:48;25.77;;;19.20;;
61741;SDS011;47650;49.848;9.620;2024-02-28T04:55:13;24.92;;;17.33;;
61741;SDS011;47650;49.848;9.620;2024-02-28T04:57:40;22.98;;;17.60;;
61741;SDS011;47650;49.848;9.620;2024-02-28T05:00:06;21.75;;;17.10;;
61741;SDS011;47650;49.848;9.620;2024-02-28T05:02:33;22.95;;;16.58;;
61741;SDS011;47650;49.848;9.620;2024-02-28T05:05:03;29.08;;;21.33;;
61741;SDS011;47650;49.848;9.620;2024-02-28T05:07:30;27.20;;;19.58;;
61741;SDS011;47650;49.848;9.620;2024-02-28T05:09:55;24.45;;;18.63;;
61741;SDS011;47650;49.848;9.620;2024-02-28T05:12:23;21.80;;;16.77;;
61741;SDS011;47650;49.848;9.620;2024-02-28T05:14:49;21.45;;;15.60;;
61741;SDS011;47650;49.848;9.620;2024-02-28T05:17:15;20.00;;;15.85;;
61741;SDS011;47650;49.848;9.620;2024-02-28T05:19:44;23.10;;;16.08;;
61741;SDS011;47650;49.848;9.620;2024-02-28T05:22:12;22.02;;;16.08;;
61741;SDS011;47650;49.848;9.620;2024-02-28T05:24:40;21.02;;;15.73;;
61741;SDS011;47650;49.848;9.620;2024-02-28T05:27:08;21.52;;;16.23;;
61741;SDS011;47650;49.848;9.620;2024-02-28T05:29:35;29.20;;;23.33;;
61741;SDS011;47650;49.848;9.620;2024-02-28T05:32:01;25.42;;;19.02;;
61741;SDS011;47650;49.848;9.620;2024-02-28T05:34:27;25.48;;;18.95;;
61741;SDS011;47650;49.848;9.620;2024-02-28T05:36:53;22.20;;;16.65;;
61741;SDS011;47650;49.848;9.620;2024-02-28T05:39:19;27.23;;;19.25;;
61741;SDS011;47650;49.848;9.620;2024-02-28T05:41:45;34.35;;;22.17;;
61741;SDS011;47650;49.848;9.620;2024-02-28T05:44:10;26.75;;;19.17;;
61741;SDS011;47650;49.848;9.620;2024-02-28T05:46:36;23.42;;;17.02;;
61741;SDS011;47650;49.848;9.620;2024-02-28T05:49:02;28.85;;;21.35;;
61741;SDS011;47650;49.848;9.620;2024-02-28T05:51:28;23.60;;;17.10;;
61741;SDS011;47650;49.848;9.620;2024-02-28T05:53:56;25.95;;;16.35;;
61741;SDS011;47650;49.848;9.620;2024-02-28T05:56:21;22.92;;;15.35;;
61741;SDS011;47650;49.848;9.620;2024-02-28T05:58:47;24.15;;;17.17;;
61741;SDS011;47650;49.848;9.620;2024-02-28T06:01:19;25.20;;;17.58;;
61741;SDS011;47650;49.848;9.620;2024-02-28T06:03:47;22.73;;;16.42;;
61741;SDS011;47650;49.848;9.620;2024-02-28T06:06:13;29.20;;;18.33;;
61741;SDS011;47650;49.848;9.620;2024-02-28T06:08:40;22.98;;;14.93;;
61741;SDS011;47650;49.848;9.620;2024-02-28T06:11:06;19.25;;;14.73;;
61741;SDS011;47650;49.848;9.620;2024-02-28T06:13:36;22.75;;;15.40;;
61741;SDS011;47650;49.848;9.620;2024-02-28T06:16:02;25.92;;;17.55;;
61741;SDS011;47650;49.848;9.620;2024-02-28T06:18:28;22.48;;;15.95;;
61741;SDS011;47650;49.848;9.620;2024-02-28T06:21:01;23.75;;;16.92;;
61741;SDS011;47650;49.848;9.620;2024-02-28T06:23:26;20.60;;;15.88;;
61741;SDS011;47650;49.848;9.620;2024-02-28T06:25:52;23.48;;;16.48;;
61741;SDS011;47650;49.848;9.620;2024-02-28T06:28:17;23.55;;;16.60;;
61741;SDS011;47650;49.848;9.620;2024-02-28T06:30:43;20.60;;;15.93;;
61741;SDS011;47650;49.848;9.620;2024-02-28T06:33:11;23.05;;;17.33;;
61741;SDS011;47650;49.848;9.620;2024-02-28T06:35:37;21.83;;;16.55;;
61741;SDS011;47650;49.848;9.620;2024-02-28T06:38:02;22.63;;;15.95;;
61741;SDS011;47650;49.848;9.620;2024-02-28T06:40:28;21.23;;;15.80;;
61741;SDS011;47650;49.848;9.620;2024-02-28T06:42:54;20.87;;;15.40;;
61741;SDS011;47650;49.848;9.620;2024-02-28T06:45:19;21.75;;;15.48;;
61741;SDS011;47650;49.848;9.620;2024-02-28T06:47:44;19.70;;;15.43;;
61741;SDS011;47650;49.848;9.620;2024-02-28T06:50:11;21.27;;;15.23;;
61741;SDS011;47650;49.848;9.620;2024-02-28T06:52:36;20.33;;;15.13;;
61741;SDS011;47650;49.848;9.620;2024-02-28T06:55:01;21.33;;;15.00;;
61741;SDS011;47650;49.848;9.620;2024-02-28T06:57:34;20.17;;;15.27;;
61741;SDS011;47650;49.848;9.620;2024-02-28T07:00:01;19.90;;;15.38;;
61741;SDS011;47650;49.848;9.620;2024-02-28T07:02:26;19.77;;;16.15;;
61741;SDS011;47650;49.848;9.620;2024-02-28T07:04:52;22.08;;;15.95;;
61741;SDS011;47650;49.848;9.620;2024-02-28T07:07:18;21.38;;;15.60;;
61741;SDS011;47650;49.848;9.620;2024-02-28T07:09:43;18.67;;;14.40;;
61741;SDS011;47650;49.848;9.620;2024-02-28T07:12:08;20.38;;;15.27;;
61741;SDS011;47650;49.848;9.620;2024-02-28T07:14:34;19.70;;;15.10;;
61741;SDS011;47650;49.848;9.620;2024-02-28T07:17:00;19.02;;;14.55;;
61741;SDS011;47650;49.848;9.620;2024-02-28T07:19:25;18.98;;;13.75;;
61741;SDS011;47650;49.848;9.620;2024-02-28T07:21:51;19.08;;;14.43;;
61741;SDS011;47650;49.848;9.620;2024-02-28T07:24:17;19.60;;;14.52;;
61741;SDS011;47650;49.848;9.620;2024-02-28T07:26:42;17.13;;;14.40;;
61741;SDS011;47650;49.848;9.620;2024-02-28T07:29:07;17.20;;;14.68;;
61741;SDS011;47650;49.848;9.620;2024-02-28T07:31:33;16.90;;;13.57;;
61741;SDS011;47650;49.848;9.620;2024-02-28T07:33:58;18.92;;;14.43;;
61741;SDS011;47650;49.848;9.620;2024-02-28T07:36:23;16.05;;;12.43;;
61741;SDS011;47650;49.848;9.620;2024-02-28T07:38:49;17.00;;;12.57;;
61741;SDS011;47650;49.848;9.620;2024-02-28T07:41:14;17.20;;;13.48;;
61741;SDS011;47650;49.848;9.620;2024-02-28T07:43:42;17.17;;;12.70;;
61741;SDS011;47650;49.848;9.620;2024-02-28T07:46:08;17.60;;;13.05;;
61741;SDS011;47650;49.848;9.620;2024-02-28T07:48:44;14.85;;;12.25;;
61741;SDS011;47650;49.848;9.620;2024-02-28T07:51:18;15.23;;;12.40;;
61741;SDS011;47650;49.848;9.620;2024-02-28T07:53:45;14.18;;;11.68;;
61741;SDS011;47650;49.848;9.620;2024-02-28T07:56:18;15.30;;;11.30;;
61741;SDS011;47650;49.848;9.620;2024-02-28T07:58:50;12.32;;;10.85;;
61741;SDS011;47650;49.848;9.620;2024-02-28T08:01:17;11.93;;;10.68;;
61741;SDS011;47650;49.848;9.620;2024-02-28T08:03:42;12.63;;;10.00;;
61741;SDS011;47650;49.848;9.620;2024-02-28T08:06:10;11.93;;;10.45;;
61741;SDS011;47650;49.848;9.620;2024-02-28T08:08:36;11.68;;;10.48;;
61741;SDS011;47650;49.848;9.620;2024-02-28T08:11:02;12.85;;;11.52;;
61741;SDS011;47650;49.848;9.620;2024-02-28T08:13:28;10.88;;;9.82;;
61741;SDS011;47650;49.848;9.620;2024-02-28T08:15:54;10.85;;;9.75;;
61741;SDS011;47650;49.848;9.620;2024-02-28T08:18:19;10.35;;;9.35;;
61741;SDS011;47650;49.848;9.620;2024-02-28T08:20:46;9.75;;;8.75;;
61741;SDS011;47650;49.848;9.620;2024-02-28T08:23:26;10.82;;;9.73;;
61741;SDS011;47650;49.848;9.620;2024-02-28T08:25:51;10.93;;;9.82;;
61741;SDS011;47650;49.848;9.620;2024-02-28T08:28:16;10.60;;;9.60;;
61741;SDS011;47650;49.848;9.620;2024-02-28T08:30:41;10.32;;;9.07;;
61741;SDS011;47650;49.848;9.620;2024-02-28T08:33:07;11.25;;;10.02;;
61741;SDS011;47650;49.848;9.620;2024-02-28T08:35:35;11.20;;;10.20;;
61741;SDS011;47650;49.848;9.620;2024-02-28T08:38:00;11.20;;;10.20;;
61741;SDS011;47650;49.848;9.620;2024-02-28T08:40:26;11.75;;;10.75;;
61741;SDS011;47650;49.848;9.620;2024-02-28T08:42:52;10.95;;;10.05;;
61741;SDS011;47650;49.848;9.620;2024-02-28T08:45:19;11.80;;;10.73;;
61741;SDS011;47650;49.848;9.620;2024-02-28T08:47:44;13.25;;;12.00;;
61741;SDS011;47650;49.848;9.620;2024-02-28T08:50:09;12.77;;;11.57;;
61741;SDS011;47650;49.848;9.620;2024-02-28T08:52:35;19.77;;;18.10;;
61741;SDS011;47650;49.848;9.620;2024-02-28T08:55:02;14.07;;;12.88;;
61741;SDS011;47650;49.848;9.620;2024-02-28T08:57:28;15.88;;;14.57;;
61741;SDS011;47650;49.848;9.620;2024-02-28T08:59:55;16.85;;;15.50;;
61741;SDS011;47650;49.848;9.620;2024-02-28T09:02:20;15.65;;;14.32;;
61741;SDS011;47650;49.848;9.620;2024-02-28T09:04:46;12.77;;;11.68;;
61741;SDS011;47650;49.848;9.620;2024-02-28T09:07:15;13.65;;;12.55;;
61741;SDS011;47650;49.848;9.620;2024-02-28T09:09:44;17.73;;;16.30;;
61741;SDS011;47650;49.848;9.620;2024-02-28T09:12:11;15.45;;;14.20;;
61741;SDS011;47650;49.848;9.620;2024-02-28T09:14:36;15.65;;;14.40;;
61741;SDS011;47650;49.848;9.620;2024-02-28T09:17:03;10.98;;;9.93;;
61741;SDS011;47650;49.848;9.620;2024-02-28T09:19:29;10.18;;;9.10;;
61741;SDS011;47650;49.848;9.620;2024-02-28T09:21:55;12.68;;;11.57;;
61741;SDS011;47650;49.848;9.620;2024-02-28T09:24:20;12.88;;;11.63;;
61741;SDS011;47650;49.848;9.620;2024-02-28T09:26:47;11.63;;;10.50;;
61741;SDS011;47650;49.848;9.620;2024-02-28T09:29:19;10.88;;;9.88;;
61741;SDS011;47650;49.848;9.620;2024-02-28T09:31:45;11.73;;;10.73;;
61741;SDS011;47650;49.848;9.620;2024-02-28T09:34:10;10.57;;;9.68;;
61741;SDS011;47650;49.848;9.620;2024-02-28T09:36:45;11.30;;;9.98;;
61741;SDS011;47650;49.848;9.620;2024-02-28T09:39:18;10.77;;;9.77;;
61741;SDS011;47650;49.848;9.620;2024-02-28T09:41:43;10.30;;;9.35;;
61741;SDS011;47650;49.848;9.620;2024-02-28T09:44:13;9.80;;;8.90;;
61741;SDS011;47650;49.848;9.620;2024-02-28T09:46:39;10.80;;;9.80;;
61741;SDS011;47650;49.848;9.620;2024-02-28T09:49:05;11.48;;;10.48;;
61741;SDS011;47650;49.848;9.620;2024-02-28T09:51:34;10.75;;;9.85;;
61741;SDS011;47650;49.848;9.620;2024-02-28T09:54:02;12.68;;;11.48;;
61741;SDS011;47650;49.848;9.620;2024-02-28T09:56:31;11.63;;;10.60;;
61741;SDS011;47650;49.848;9.620;2024-02-28T09:58:58;11.32;;;10.30;;
61741;SDS011;47650;49.848;9.620;2024-02-28T10:01:26;11.65;;;10.65;;
61741;SDS011;47650;49.848;9.620;2024-02-28T10:03:53;11.35;;;10.35;;
61741;SDS011;47650;49.848;9.620;2024-02-28T10:06:20;11.38;;;10.27;;
61741;SDS011;47650;49.848;9.620;2024-02-28T10:08:46;12.00;;;10.77;;
61741;SDS011;47650;49.848;9.620;2024-02-28T10:11:21;10.50;;;9.60;;
61741;SDS011;47650;49.848;9.620;2024-02-28T10:13:47;10.52;;;9.63;;
61741;SDS011;47650;49.848;9.620;2024-02-28T10:16:13;10.63;;;9.63;;
61741;SDS011;47650;49.848;9.620;2024-02-28T10:18:40;10.73;;;9.80;;
61741;SDS011;47650;49.848;9.620;2024-02-28T10:21:15;10.88;;;9.90;;
61741;SDS011;47650;49.848;9.620;2024-02-28T10:23:41;10.77;;;9.77;;
61741;SDS011;47650;49.848;9.620;2024-02-28T10:26:08;9.60;;;8.80;;
61741;SDS011;47650;49.848;9.620;2024-02-28T10:28:38;10.10;;;9.25;;
61741;SDS011;47650;49.848;9.620;2024-02-28T10:31:05;9.02;;;8.23;;
61741;SDS011;47650;49.848;9.620;2024-02-28T10:33:31;9.27;;;8.48;;
61741;SDS011;47650;49.848;9.620;2024-02-28T10:35:58;9.13;;;8.32;;
61741;SDS011;47650;49.848;9.620;2024-02-28T10:38:26;9.38;;;8.48;;
61741;SDS011;47650;49.848;9.620;2024-02-28T10:40:52;9.38;;;8.68;;
61741;SDS011;47650;49.848;9.620;2024-02-28T10:43:18;8.90;;;8.20;;
61741;SDS011;47650;49.848;9.620;2024-02-28T10:45:44;8.90;;;8.20;;
61741;SDS011;47650;49.848;9.620;2024-02-28T10:48:11;8.02;;;7.25;;
61741;SDS011;47650;49.848;9.620;2024-02-28T10:50:39;7.53;;;6.88;;
61741;SDS011;47650;49.848;9.620;2024-02-28T10:53:09;8.60;;;7.85;;
61741;SDS011;47650;49.848;9.620;2024-02-28T10:55:41;8.55;;;7.70;;
61741;SDS011;47650;49.848;9.620;2024-02-28T10:58:07;8.27;;;7.60;;
61741;SDS011;47650;49.848;9.620;2024-02-28T11:00:35;7.40;;;6.80;;
61741;SDS011;47650;49.848;9.620;2024-02-28T11:03:03;7.90;;;7.15;;
61741;SDS011;47650;49.848;9.620;2024-02-28T11:05:41;7.38;;;6.68;;
61741;SDS011;47650;49.848;9.620;2024-02-28T11:08:11;7.03;;;6.32;;
61741;SDS011;47650;49.848;9.620;2024-02-28T11:10:45;6.30;;;5.80;;
61741;SDS011;47650;49.848;9.620;2024-02-28T11:13:23;5.57;;;5.15;;
61741;SDS011;47650;49.848;9.620;2024-02-28T11:15:49;5.68;;;5.18;;
61741;SDS011;47650;49.848;9.620;2024-02-28T11:18:15;5.43;;;5.00;;
61741;SDS011;47650;49.848;9.620;2024-02-28T11:20:41;5.80;;;5.30;;
61741;SDS011;47650;49.848;9.620;2024-02-28T11:23:07;5.18;;;4.78;;
61741;SDS011;47650;49.848;9.620;2024-02-28T11:25:34;5.13;;;4.72;;
61741;SDS011;47650;49.848;9.620;2024-02-28T11:27:59;5.13;;;4.72;;
61741;SDS011;47650;49.848;9.620;2024-02-28T11:30:25;5.30;;;4.90;;
61741;SDS011;47650;49.848;9.620;2024-02-28T11:32:53;4.97;;;4.53;;
61741;SDS011;47650;49.848;9.620;2024-02-28T11:35:23;4.22;;;3.88;;
61741;SDS011;47650;49.848;9.620;2024-02-28T11:37:49;3.80;;;3.50;;
61741;SDS011;47650;49.848;9.620;2024-02-28T11:40:14;4.50;;;4.10;;
61741;SDS011;47650;49.848;9.620;2024-02-28T11:42:40;3.90;;;3.50;;
61741;SDS011;47650;49.848;9.620;2024-02-28T11:45:09;3.95;;;3.65;;
61741;SDS011;47650;49.848;9.620;2024-02-28T11:47:35;4.50;;;4.10;;
61741;SDS011;47650;49.848;9.620;2024-02-28T11:50:08;4.22;;;3.92;;
61741;SDS011;47650;49.848;9.620;2024-02-28T11:52:34;4.60;;;4.05;;
61741;SDS011;47650;49.848;9.620;2024-02-28T11:54:59;6.57;;;3.75;;
61741;SDS011;47650;49.848;9.620;2024-02-28T11:57:25;4.30;;;3.90;;
61741;SDS011;47650;49.848;9.620;2024-02-28T11:59:51;4.13;;;3.78;;
61741;SDS011;47650;49.848;9.620;2024-02-28T12:02:17;4.70;;;3.70;;
61741;SDS011;47650;49.848;9.620;2024-02-28T12:04:43;3.65;;;3.35;;
61741;SDS011;47650;49.848;9.620;2024-02-28T12:07:09;3.85;;;3.55;;
61741;SDS011;47650;49.848;9.620;2024-02-28T12:09:35;3.70;;;3.30;;
61741;SDS011;47650;49.848;9.620;2024-02-28T12:12:01;4.50;;;4.10;;
61741;SDS011;47650;49.848;9.620;2024-02-28T12:14:29;4.60;;;4.20;;
61741;SDS011;47650;49.848;9.620;2024-02-28T12:16:57;4.55;;;4.15;;
61741;SDS011;47650;49.848;9.620;2024-02-28T12:19:22;4.97;;;4.20;;
61741;SDS011;47650;49.848;9.620;2024-02-28T12:21:50;4.57;;;4.18;;
61741;SDS011;47650;49.848;9.620;2024-02-28T12:24:15;3.87;;;3.33;;
61741;SDS011;47650;49.848;9.620;2024-02-28T12:26:41;3.30;;;3.00;;
61741;SDS011;47650;49.848;9.620;2024-02-28T12:29:06;4.03;;;3.72;;
61741;SDS011;47650;49.848;9.620;2024-02-28T12:31:34;3.53;;;3.17;;
61741;SDS011;47650;49.848;9.620;2024-02-28T12:34:01;3.67;;;3.38;;
61741;SDS011;47650;49.848;9.620;2024-02-28T12:36:29;3.75;;;3.38;;
61741;SDS011;47650;49.848;9.620;2024-02-28T12:38:56;3.22;;;2.92;;
61741;SDS011;47650;49.848;9.620;2024-02-28T12:41:29;4.55;;;2.85;;
61741;SDS011;47650;49.848;9.620;2024-02-28T12:43:54;3.72;;;2.88;;
61741;SDS011;47650;49.848;9.620;2024-02-28T12:46:19;3.63;;;3.33;;
61741;SDS011;47650;49.848;9.620;2024-02-28T12:48:45;4.05;;;3.55;;
61741;SDS011;47650;49.848;9.620;2024-02-28T12:51:13;3.22;;;2.92;;
61741;SDS011;47650;49.848;9.620;2024-02-28T12:54:00;4.05;;;3.75;;
61741;SDS011;47650;49.848;9.620;2024-02-28T12:56:25;3.43;;;2.97;;
61741;SDS011;47650;49.848;9.620;2024-02-28T12:58:52;2.78;;;2.58;;
61741;SDS011;47650;49.848;9.620;2024-02-28T13:01:18;4.57;;;3.65;;
61741;SDS011;47650;49.848;9.620;2024-02-28T13:03:43;4.20;;;3.90;;
61741;SDS011;47650;49.848;9.620;2024-02-28T13:06:08;4.53;;;4.13;;
61741;SDS011;47650;49.848;9.620;2024-02-28T13:08:35;2.70;;;2.50;;
61741;SDS011;47650;49.848;9.620;2024-02-28T13:11:00;3.28;;;2.97;;
61741;SDS011;47650;49.848;9.620;2024-02-28T13:13:26;2.72;;;2.53;;
61741;SDS011;47650;49.848;9.620;2024-02-28T13:15:51;3.77;;;2.50;;
61741;SDS011;47650;49.848;9.620;2024-02-28T13:18:16;2.92;;;2.67;;
61741;SDS011;47650;49.848;9.620;2024-02-28T13:20:42;3.13;;;2.80;;
61741;SDS011;47650;49.848;9.620;2024-02-28T13:23:07;2.80;;;2.60;;
61741;SDS011;47650;49.848;9.620;2024-02-28T13:25:32;2.92;;;2.72;;
61741;SDS011;47650;49.848;9.620;2024-02-28T13:27:58;2.72;;;2.53;;
61741;SDS011;47650;49.848;9.620;2024-02-28T13:30:23;2.85;;;2.58;;
61741;SDS011;47650;49.848;9.620;2024-02-28T13:32:50;3.20;;;2.90;;
61741;SDS011;47650;49.848;9.620;2024-02-28T13:35:18;3.47;;;3.17;;
61741;SDS011;47650;49.848;9.620;2024-02-28T13:37:43;3.30;;;3.00;;
61741;SDS011;47650;49.848;9.620;2024-02-28T13:40:09;3.00;;;2.70;;
61741;SDS011;47650;49.848;9.620;2024-02-28T13:42:35;3.00;;;2.80;;
61741;SDS011;47650;49.848;9.620;2024-02-28T13:45:02;3.60;;;2.70;;
61741;SDS011;47650;49.848;9.620;2024-02-28T13:47:32;3.13;;;2.83;;
61741;SDS011;47650;49.848;9.620;2024-02-28T13:49:58;3.15;;;2.85;;
61741;SDS011;47650;49.848;9.620;2024-02-28T13:52:24;3.00;;;2.70;;
61741;SDS011;47650;49.848;9.620;2024-02-28T13:54:50;2.73;;;2.50;;
61741;SDS011;47650;49.848;9.620;2024-02-28T13:57:17;2.55;;;2.35;;
61741;SDS011;47650;49.848;9.620;2024-02-28T13:59:42;3.35;;;3.05;;
61741;SDS011;47650;49.848;9.620;2024-02-28T14:02:09;3.13;;;2.85;;
61741;SDS011;47650;49.848;9.620;2024-02-28T14:04:35;2.72;;;2.50;;
61741;SDS011;47650;49.848;9.620;2024-02-28T14:07:00;4.28;;;2.88;;
61741;SDS011;47650;49.848;9.620;2024-02-28T14:09:26;6.27;;;3.07;;
61741;SDS011;47650;49.848;9.620;2024-02-28T14:11:51;3.42;;;2.47;;
61741;SDS011;47650;49.848;9.620;2024-02-28T14:14:16;2.95;;;2.53;;
61741;SDS011;47650;49.848;9.620;2024-02-28T14:16:42;7.82;;;7.18;;
61741;SDS011;47650;49.848;9.620;2024-02-28T14:19:08;3.30;;;3.00;;
61741;SDS011;47650;49.848;9.620;2024-02-28T14:21:34;2.63;;;2.30;;
61741;SDS011;47650;49.848;9.620;2024-02-28T14:24:00;2.38;;;2.17;;
61741;SDS011;47650;49.848;9.620;2024-02-28T14:26:25;2.50;;;2.30;;
61741;SDS011;47650;49.848;9.620;2024-02-28T14:28:52;2.97;;;2.70;;